createdAt,value
2024-01-09T00:00:29.704Z,-4.56
2024-01-09T00:01:29.659Z,-4.47
2024-01-09T00:02:29.673Z,-4.61
2024-01-09T00:03:29.692Z,-4.57
2024-01-09T00:04:29.627Z,-4.60
2024-01-09T00:05:29.697Z,-4.68
2024-01-09T00:06:29.708Z,-4.63
2024-01-09T00:07:29.653Z,-4.63
2024-01-09T00:08:29.628Z,-4.60
2024-01-09T00:09:29.590Z,-4.68
2024-01-09T00:10:29.564Z,-4.77
2024-01-09T00:11:29.593Z,-4.68
2024-01-09T00:12:29.550Z,-4.58
2024-01-09T00:13:29.527Z,-4.65
2024-01-09T00:14:29.594Z,-4.61
2024-01-09T00:15:29.525Z,-4.60
2024-01-09T00:16:29.545Z,-4.69
2024-01-09T00:17:29.560Z,-4.68
2024-01-09T00:18:29.515Z,-4.60
2024-01-09T00:19:31.179Z,-4.65
2024-01-09T00:20:29.512Z,-4.50
2024-01-09T00:21:29.480Z,-4.60
2024-01-09T00:22:29.467Z,-4.69
2024-01-09T00:23:29.464Z,-4.67
2024-01-09T00:24:29.404Z,-4.65
2024-01-09T00:25:29.389Z,-4.65
2024-01-09T00:26:29.440Z,-4.71
2024-01-09T00:27:29.437Z,-4.68
2024-01-09T00:28:29.405Z,-4.75
2024-01-09T00:29:29.403Z,-4.78
2024-01-09T00:30:29.392Z,-4.71
2024-01-09T00:31:29.350Z,-4.79
2024-01-09T00:32:29.498Z,-4.72
2024-01-09T00:33:29.571Z,-4.79
2024-01-09T00:34:29.391Z,-4.69
2024-01-09T00:35:29.337Z,-4.72
2024-01-09T00:36:29.316Z,-4.77
2024-01-09T00:37:29.264Z,-4.78
2024-01-09T00:38:29.281Z,-4.74
2024-01-09T00:39:29.253Z,-4.69
2024-01-09T00:40:29.226Z,-4.81
2024-01-09T00:41:29.272Z,-4.74
2024-01-09T00:42:29.229Z,-4.87
2024-01-09T00:43:29.232Z,-4.90
2024-01-09T00:44:29.240Z,-4.86
2024-01-09T00:45:29.180Z,-4.90
2024-01-09T00:46:29.222Z,-4.81
2024-01-09T00:47:29.290Z,-4.85
2024-01-09T00:48:29.410Z,-4.95
2024-01-09T00:49:29.191Z,-4.87
2024-01-09T00:50:29.209Z,-4.93
2024-01-09T00:51:29.106Z,-4.96
2024-01-09T00:52:29.095Z,-4.97
2024-01-09T00:53:29.153Z,-4.99
2024-01-09T00:54:29.107Z,-5.11
2024-01-09T00:55:29.094Z,-4.96
2024-01-09T00:56:29.158Z,-4.96
2024-01-09T00:57:29.045Z,-5.10
2024-01-09T00:58:29.059Z,-5.08
2024-01-09T00:59:29.063Z,-5.14
2024-01-09T01:00:29.041Z,-5.06
2024-01-09T01:01:29.039Z,-5.07
2024-01-09T01:02:29.001Z,-4.97
2024-01-09T01:03:29.046Z,-5.10
2024-01-09T01:04:29.029Z,-5.08
2024-01-09T01:05:29.083Z,-5.07
2024-01-09T01:06:28.955Z,-5.03
2024-01-09T01:07:28.950Z,-5.03
2024-01-09T01:08:28.941Z,-5.11
2024-01-09T01:09:28.910Z,-5.00
2024-01-09T01:10:28.939Z,-5.08
2024-01-09T01:11:28.957Z,-5.11
2024-01-09T01:12:28.894Z,-5.06
2024-01-09T01:13:28.893Z,-5.10
2024-01-09T01:14:28.880Z,-5.06
2024-01-09T01:15:28.865Z,-5.08
2024-01-09T01:16:28.838Z,-4.99
2024-01-09T01:17:28.897Z,-5.14
2024-01-09T01:18:28.877Z,-5.14
2024-01-09T01:19:28.856Z,-5.17
2024-01-09T01:20:28.857Z,-5.08
2024-01-09T01:21:28.804Z,-5.10
2024-01-09T01:22:28.792Z,-5.25
2024-01-09T01:23:28.829Z,-5.29
2024-01-09T01:24:28.767Z,-5.13
2024-01-09T01:25:28.757Z,-5.23
2024-01-09T01:26:28.737Z,-5.27
2024-01-09T01:27:28.741Z,-5.23
2024-01-09T01:28:28.704Z,-5.19
2024-01-09T01:29:28.813Z,-5.18
2024-01-09T01:30:28.737Z,-5.23
2024-01-09T01:31:28.690Z,-5.22
2024-01-09T01:32:28.866Z,-5.23
2024-01-09T01:33:28.774Z,-5.29
2024-01-09T01:34:28.723Z,-5.23
2024-01-09T01:35:28.707Z,-5.19
2024-01-09T01:36:28.662Z,-5.26
2024-01-09T01:37:28.631Z,-5.25
2024-01-09T01:38:28.661Z,-5.22
2024-01-09T01:39:28.598Z,-5.18
2024-01-09T01:40:28.610Z,-5.29
2024-01-09T01:41:28.693Z,-5.30
2024-01-09T01:42:28.581Z,-5.19
2024-01-09T01:43:28.545Z,-5.30
2024-01-09T01:44:28.599Z,-5.27
2024-01-09T01:45:28.527Z,-5.18
2024-01-09T01:46:28.524Z,-5.25
2024-01-09T01:47:28.698Z,-5.11
2024-01-09T01:48:28.705Z,-5.29
2024-01-09T01:49:28.593Z,-5.30
2024-01-09T01:50:28.500Z,-5.22
2024-01-09T01:51:28.468Z,-5.23
2024-01-09T01:52:28.497Z,-5.22
2024-01-09T01:53:28.479Z,-5.26
2024-01-09T01:54:28.469Z,-5.39
2024-01-09T01:55:28.443Z,-5.30
2024-01-09T01:56:38.685Z,-5.33
2024-01-09T01:57:28.409Z,-5.39
2024-01-09T01:58:28.391Z,-5.39
2024-01-09T01:59:28.483Z,-5.37
2024-01-09T02:00:28.456Z,-5.39
2024-01-09T02:01:28.394Z,-5.41
2024-01-09T02:02:28.416Z,-5.35
2024-01-09T02:03:28.375Z,-5.43
2024-01-09T02:04:28.334Z,-5.44
2024-01-09T02:05:28.416Z,-5.39
2024-01-09T02:06:28.424Z,-5.47
2024-01-09T02:07:28.317Z,-5.43
2024-01-09T02:08:28.297Z,-5.35
2024-01-09T02:09:28.293Z,-5.43
2024-01-09T02:10:28.253Z,-5.35
2024-01-09T02:11:28.341Z,-5.30
2024-01-09T02:12:29.097Z,-5.32
2024-01-09T02:13:28.262Z,-5.35
2024-01-09T02:14:28.261Z,-5.32
2024-01-09T02:15:28.219Z,-5.41
2024-01-09T02:16:28.209Z,-5.36
2024-01-09T02:17:32.070Z,-5.33
2024-01-09T02:18:28.675Z,-5.41
2024-01-09T02:19:29.143Z,-5.30
2024-01-09T02:20:29.085Z,-5.39
2024-01-09T02:21:28.185Z,-5.39
2024-01-09T02:22:28.597Z,-5.50
2024-01-09T02:23:28.266Z,-5.55
2024-01-09T02:24:29.834Z,-5.48
2024-01-09T02:25:29.093Z,-5.51
2024-01-09T02:26:40.689Z,-5.55
2024-01-09T02:27:29.202Z,-5.54
2024-01-09T02:28:28.238Z,-5.54
2024-01-09T02:29:28.112Z,-5.55
2024-01-09T02:30:28.078Z,-5.61
2024-01-09T02:31:28.048Z,-5.59
2024-01-09T02:32:28.106Z,-5.53
2024-01-09T02:33:28.172Z,-5.55
2024-01-09T02:34:28.126Z,-5.57
2024-01-09T02:35:28.054Z,-5.57
2024-01-09T02:36:28.043Z,-5.68
2024-01-09T02:37:27.968Z,-5.69
2024-01-09T02:38:28.023Z,-5.71
2024-01-09T02:39:27.957Z,-5.62
2024-01-09T02:40:27.997Z,-5.59
2024-01-09T02:41:28.000Z,-5.62
2024-01-09T02:42:27.966Z,-5.65
2024-01-09T02:43:27.910Z,-5.75
2024-01-09T02:44:27.945Z,-5.65
2024-01-09T02:45:27.911Z,-5.68
2024-01-09T02:46:27.882Z,-5.62
2024-01-09T02:47:27.974Z,-5.65
2024-01-09T02:48:27.996Z,-5.71
2024-01-09T02:49:27.858Z,-5.65
2024-01-09T02:50:27.847Z,-5.80
2024-01-09T02:51:27.866Z,-5.64
2024-01-09T02:52:27.826Z,-5.69
2024-01-09T02:53:27.860Z,-5.74
2024-01-09T02:54:27.822Z,-5.72
2024-01-09T02:55:27.782Z,-5.80
2024-01-09T02:56:27.798Z,-5.90
2024-01-09T02:57:27.775Z,-5.86
2024-01-09T02:58:27.760Z,-5.92
2024-01-09T02:59:27.824Z,-5.94
2024-01-09T03:00:27.724Z,-5.97
2024-01-09T03:01:27.865Z,-5.87
2024-01-09T03:02:27.841Z,-5.90
2024-01-09T03:03:27.838Z,-5.84
2024-01-09T03:04:27.699Z,-5.90
2024-01-09T03:05:27.794Z,-5.84
2024-01-09T03:06:27.986Z,-5.75
2024-01-09T03:07:27.806Z,-5.79
2024-01-09T03:08:28.225Z,-5.75
2024-01-09T03:09:27.653Z,-5.79
2024-01-09T03:10:27.707Z,-5.74
2024-01-09T03:11:27.641Z,-5.74
2024-01-09T03:12:27.612Z,-5.83
2024-01-09T03:13:27.605Z,-5.75
2024-01-09T03:14:27.604Z,-5.74
2024-01-09T03:15:27.628Z,-5.75
2024-01-09T03:16:27.564Z,-5.72
2024-01-09T03:17:27.675Z,-5.76
2024-01-09T03:18:27.761Z,-5.80
2024-01-09T03:19:27.597Z,-5.97
2024-01-09T03:20:27.547Z,-5.93
2024-01-09T03:21:27.540Z,-5.87
2024-01-09T03:22:27.527Z,-5.93
2024-01-09T03:23:27.541Z,-5.93
2024-01-09T03:24:27.470Z,-5.89
2024-01-09T03:25:27.481Z,-5.87
2024-01-09T03:26:27.536Z,-5.93
2024-01-09T03:27:27.456Z,-5.87
2024-01-09T03:28:27.483Z,-6.04
2024-01-09T03:29:27.447Z,-6.05
2024-01-09T03:30:27.424Z,-6.05
2024-01-09T03:31:27.438Z,-6.00
2024-01-09T03:32:27.457Z,-6.03
2024-01-09T03:33:27.658Z,-6.08
2024-01-09T03:34:27.416Z,-6.03
2024-01-09T03:35:27.366Z,-6.10
2024-01-09T03:36:27.367Z,-6.11
2024-01-09T03:37:27.373Z,-6.11
2024-01-09T03:38:27.356Z,-6.07
2024-01-09T03:39:27.370Z,-6.04
2024-01-09T03:40:27.313Z,-6.07
2024-01-09T03:41:27.317Z,-6.13
2024-01-09T03:42:27.276Z,-6.10
2024-01-09T03:43:27.301Z,-6.08
2024-01-09T03:44:27.332Z,-6.10
2024-01-09T03:45:27.279Z,-6.13
2024-01-09T03:46:27.252Z,-6.11
2024-01-09T03:47:27.252Z,-6.05
2024-01-09T03:48:27.229Z,-6.08
2024-01-09T03:49:27.240Z,-6.10
2024-01-09T03:50:27.264Z,-6.10
2024-01-09T03:51:27.235Z,-6.11
2024-01-09T03:52:27.184Z,-6.19
2024-01-09T03:53:27.197Z,-6.15
2024-01-09T03:54:27.163Z,-6.25
2024-01-09T03:55:27.161Z,-6.23
2024-01-09T03:56:27.168Z,-6.21
2024-01-09T03:57:27.160Z,-6.29
2024-01-09T03:58:27.120Z,-6.34
2024-01-09T03:59:27.125Z,-6.23
2024-01-09T04:00:27.150Z,-6.28
2024-01-09T04:01:27.092Z,-6.32
2024-01-09T04:02:27.067Z,-6.26
2024-01-09T04:03:27.104Z,-6.31
2024-01-09T04:04:29.062Z,-6.36
2024-01-09T04:05:27.108Z,-6.34
2024-01-09T04:06:27.100Z,-6.31
2024-01-09T04:07:27.040Z,-6.26
2024-01-09T04:08:27.059Z,-6.28
2024-01-09T04:09:27.024Z,-6.25
2024-01-09T04:10:27.033Z,-6.26
2024-01-09T04:11:26.980Z,-6.21
2024-01-09T04:12:26.957Z,-6.21
2024-01-09T04:13:26.957Z,-6.21
2024-01-09T04:14:26.981Z,-6.23
2024-01-09T04:15:26.992Z,-6.22
2024-01-09T04:16:26.976Z,-6.36
2024-01-09T04:17:27.015Z,-6.25
2024-01-09T04:18:27.020Z,-6.34
2024-01-09T04:19:26.931Z,-6.28
2024-01-09T04:20:26.938Z,-6.16
2024-01-09T04:21:26.900Z,-6.08
2024-01-09T04:22:26.906Z,-6.13
2024-01-09T04:23:26.858Z,-6.15
2024-01-09T04:24:26.830Z,-6.10
2024-01-09T04:25:26.818Z,-6.10
2024-01-09T04:26:26.891Z,-6.25
2024-01-09T04:27:26.838Z,-6.13
2024-01-09T04:28:26.800Z,-6.23
2024-01-09T04:29:26.820Z,-6.25
2024-01-09T04:30:26.792Z,-6.32
2024-01-09T04:31:26.756Z,-6.25
2024-01-09T04:32:26.812Z,-6.31
2024-01-09T04:33:26.966Z,-6.44
2024-01-09T04:34:26.780Z,-6.47
2024-01-09T04:35:26.749Z,-6.46
2024-01-09T04:36:26.707Z,-6.40
2024-01-09T04:37:26.686Z,-6.39
2024-01-09T04:38:26.724Z,-6.32
2024-01-09T04:39:26.709Z,-6.31
2024-01-09T04:40:26.679Z,-6.29
2024-01-09T04:41:26.680Z,-6.34
2024-01-09T04:42:26.646Z,-6.22
2024-01-09T04:43:26.658Z,-6.28
2024-01-09T04:44:26.674Z,-6.21
2024-01-09T04:45:26.699Z,-6.19
2024-01-09T04:46:26.614Z,-6.23
2024-01-09T04:47:26.642Z,-6.19
2024-01-09T04:48:26.828Z,-6.16
2024-01-09T04:49:26.576Z,-6.13
2024-01-09T04:50:26.610Z,-6.26
2024-01-09T04:51:26.600Z,-6.18
2024-01-09T04:52:26.523Z,-6.13
2024-01-09T04:53:26.543Z,-6.11
2024-01-09T04:54:26.520Z,-6.18
2024-01-09T04:55:26.508Z,-6.19
2024-01-09T04:56:26.525Z,-6.16
2024-01-09T04:57:26.521Z,-6.19
2024-01-09T04:58:26.462Z,-6.18
2024-01-09T04:59:26.764Z,-6.11
2024-01-09T05:00:26.451Z,-6.23
2024-01-09T05:01:26.437Z,-6.18
2024-01-09T05:02:26.484Z,-6.15
2024-01-09T05:03:26.484Z,-6.16
2024-01-09T05:04:26.410Z,-6.16
2024-01-09T05:05:26.585Z,-6.25
2024-01-09T05:06:26.494Z,-6.25
2024-01-09T05:07:26.383Z,-6.23
2024-01-09T05:08:26.492Z,-6.19
2024-01-09T05:09:26.362Z,-6.28
2024-01-09T05:10:26.352Z,-6.21
2024-01-09T05:11:26.408Z,-6.22
2024-01-09T05:12:26.329Z,-6.21
2024-01-09T05:13:26.304Z,-6.22
2024-01-09T05:14:26.308Z,-6.29
2024-01-09T05:15:26.282Z,-6.29
2024-01-09T05:16:26.306Z,-6.26
2024-01-09T05:17:26.367Z,-6.37
2024-01-09T05:18:26.450Z,-6.25
2024-01-09T05:19:26.463Z,-6.28
2024-01-09T05:20:26.299Z,-6.29
2024-01-09T05:21:26.224Z,-6.31
2024-01-09T05:22:26.258Z,-6.28
2024-01-09T05:23:26.286Z,-6.29
2024-01-09T05:24:26.233Z,-6.37
2024-01-09T05:25:26.192Z,-6.34
2024-01-09T05:26:26.195Z,-6.37
2024-01-09T05:27:26.147Z,-6.47
2024-01-09T05:28:26.158Z,-6.34
2024-01-09T05:29:26.211Z,-6.43
2024-01-09T05:30:26.187Z,-6.39
2024-01-09T05:31:27.306Z,-6.39
2024-01-09T05:32:26.282Z,-6.42
2024-01-09T05:33:26.282Z,-6.32
2024-01-09T05:34:26.104Z,-6.32
2024-01-09T05:35:26.084Z,-6.34
2024-01-09T05:36:26.232Z,-6.32
2024-01-09T05:37:26.071Z,-6.31
2024-01-09T05:38:26.129Z,-6.22
2024-01-09T05:39:26.032Z,-6.29
2024-01-09T05:40:26.064Z,-6.19
2024-01-09T05:41:26.032Z,-6.21
2024-01-09T05:42:26.000Z,-6.25
2024-01-09T05:43:26.007Z,-6.31
2024-01-09T05:44:26.026Z,-6.46
2024-01-09T05:45:25.956Z,-6.39
2024-01-09T05:46:25.974Z,-6.43
2024-01-09T05:47:26.031Z,-6.42
2024-01-09T05:48:26.197Z,-6.40
2024-01-09T05:49:26.001Z,-6.43
2024-01-09T05:50:25.948Z,-6.36
2024-01-09T05:51:25.908Z,-6.44
2024-01-09T05:52:25.907Z,-6.42
2024-01-09T05:53:25.898Z,-6.40
2024-01-09T05:54:25.894Z,-6.40
2024-01-09T05:55:25.854Z,-6.43
2024-01-09T05:56:25.886Z,-6.42
2024-01-09T05:57:25.830Z,-6.43
2024-01-09T05:58:25.863Z,-6.47
2024-01-09T05:59:25.908Z,-6.49
2024-01-09T06:00:25.840Z,-6.46
2024-01-09T06:01:25.841Z,-6.49
2024-01-09T06:02:25.842Z,-6.59
2024-01-09T06:03:25.809Z,-6.50
2024-01-09T06:04:25.773Z,-6.52
2024-01-09T06:05:25.869Z,-6.54
2024-01-09T06:06:25.886Z,-6.50
2024-01-09T06:07:25.755Z,-6.50
2024-01-09T06:08:25.847Z,-6.44
2024-01-09T06:09:25.710Z,-6.54
2024-01-09T06:10:25.708Z,-6.50
2024-01-09T06:11:25.751Z,-6.47
2024-01-09T06:12:25.700Z,-6.49
2024-01-09T06:13:25.677Z,-6.55
2024-01-09T06:14:25.727Z,-6.55
2024-01-09T06:15:25.644Z,-6.58
2024-01-09T06:16:25.640Z,-6.52
2024-01-09T06:17:25.739Z,-6.52
2024-01-09T06:18:25.842Z,-6.58
2024-01-09T06:19:26.754Z,-6.54
2024-01-09T06:20:25.643Z,-6.54
2024-01-09T06:21:25.604Z,-6.54
2024-01-09T06:22:25.571Z,-6.54
2024-01-09T06:23:25.614Z,-6.59
2024-01-09T06:24:25.574Z,-6.63
2024-01-09T06:25:25.581Z,-6.58
2024-01-09T06:26:25.536Z,-6.63
2024-01-09T06:27:25.518Z,-6.65
2024-01-09T06:28:25.512Z,-6.66
2024-01-09T06:29:25.541Z,-6.73
2024-01-09T06:30:25.572Z,-6.74
2024-01-09T06:31:25.491Z,-6.62
2024-01-09T06:32:25.640Z,-6.52
2024-01-09T06:33:25.616Z,-6.52
2024-01-09T06:34:25.488Z,-6.62
2024-01-09T06:35:25.459Z,-6.62
2024-01-09T06:36:25.493Z,-6.59
2024-01-09T06:37:25.405Z,-6.58
2024-01-09T06:38:25.442Z,-6.62
2024-01-09T06:39:25.406Z,-6.63
2024-01-09T06:40:25.586Z,-6.50
2024-01-09T06:41:25.416Z,-6.59
2024-01-09T06:42:25.356Z,-6.61
2024-01-09T06:43:25.358Z,-6.58
2024-01-09T06:44:25.392Z,-6.62
2024-01-09T06:45:25.334Z,-6.52
2024-01-09T06:46:25.319Z,-6.54
2024-01-09T06:47:25.386Z,-6.62
2024-01-09T06:48:25.627Z,-6.62
2024-01-09T06:49:25.421Z,-6.55
2024-01-09T06:50:33.352Z,-6.62
2024-01-09T06:51:26.352Z,-6.63
2024-01-09T06:52:25.314Z,-6.69
2024-01-09T06:53:25.338Z,-6.74
2024-01-09T06:54:25.290Z,-6.76
2024-01-09T06:55:25.311Z,-6.74
2024-01-09T06:57:25.258Z,-6.76
2024-01-09T06:58:25.277Z,-6.79
2024-01-09T06:59:25.309Z,-6.74
2024-01-09T07:00:25.209Z,-6.80
2024-01-09T07:01:25.264Z,-6.80
2024-01-09T07:02:25.251Z,-6.79
2024-01-09T07:03:25.194Z,-6.69
2024-01-09T07:04:25.296Z,-6.80
2024-01-09T07:05:25.207Z,-6.76
2024-01-09T07:06:25.220Z,-6.86
2024-01-09T07:07:31.467Z,-6.86
2024-01-09T07:08:26.132Z,-6.84
2024-01-09T07:09:25.071Z,-6.84
2024-01-09T07:10:25.065Z,-6.77
2024-01-09T07:11:25.067Z,-6.84
2024-01-09T07:12:25.051Z,-6.82
2024-01-09T07:13:25.057Z,-6.80
2024-01-09T07:14:25.104Z,-6.84
2024-01-09T07:15:25.116Z,-6.80
2024-01-09T07:16:25.006Z,-6.87
2024-01-09T07:17:25.036Z,-6.79
2024-01-09T07:18:25.106Z,-6.79
2024-01-09T07:19:25.053Z,-6.76
2024-01-09T07:20:25.215Z,-6.71
2024-01-09T07:21:24.964Z,-6.74
2024-01-09T07:22:24.938Z,-6.69
2024-01-09T07:23:24.964Z,-6.62
2024-01-09T07:24:24.903Z,-6.65
2024-01-09T07:25:24.897Z,-6.63
2024-01-09T07:26:24.961Z,-6.62
2024-01-09T07:27:24.878Z,-6.58
2024-01-09T07:28:24.914Z,-6.79
2024-01-09T07:29:24.862Z,-6.66
2024-01-09T07:30:24.893Z,-6.74
2024-01-09T07:31:24.828Z,-6.69
2024-01-09T07:32:25.092Z,-6.76
2024-01-09T07:33:25.012Z,-6.55
2024-01-09T07:34:24.942Z,-6.59
2024-01-09T07:35:24.811Z,-6.52
2024-01-09T07:36:24.774Z,-6.59
2024-01-09T07:37:24.775Z,-6.50
2024-01-09T07:38:24.793Z,-6.62
2024-01-09T07:39:24.764Z,-6.69
2024-01-09T07:40:24.758Z,-6.69
2024-01-09T07:41:24.745Z,-6.71
2024-01-09T07:42:24.718Z,-6.63
2024-01-09T07:43:24.735Z,-6.55
2024-01-09T07:44:24.766Z,-6.58
2024-01-09T07:45:24.704Z,-6.54
2024-01-09T07:46:24.697Z,-6.55
2024-01-09T07:47:24.771Z,-6.68
2024-01-09T07:48:25.032Z,-6.61
2024-01-09T07:49:24.685Z,-6.63
2024-01-09T07:50:24.683Z,-6.52
2024-01-09T07:51:24.636Z,-6.46
2024-01-09T07:52:24.612Z,-6.43
2024-01-09T07:53:24.629Z,-6.50
2024-01-09T07:54:24.608Z,-6.49
2024-01-09T07:55:24.592Z,-6.42
2024-01-09T07:56:24.631Z,-6.39
2024-01-09T07:57:28.438Z,-6.43
2024-01-09T07:58:25.564Z,-6.49
2024-01-09T07:59:24.558Z,-6.42
2024-01-09T08:00:24.555Z,-6.43
2024-01-09T08:01:24.563Z,-6.36
2024-01-09T08:02:24.550Z,-6.44
2024-01-09T08:03:24.544Z,-6.37
2024-01-09T08:04:24.483Z,-6.43
2024-01-09T08:05:24.505Z,-6.46
2024-01-09T08:06:24.749Z,-6.44
2024-01-09T08:07:24.455Z,-6.43
2024-01-09T08:08:24.496Z,-6.25
2024-01-09T08:09:24.452Z,-6.49
2024-01-09T08:10:24.425Z,-6.31
2024-01-09T08:11:25.113Z,-6.49
2024-01-09T08:12:24.395Z,-6.37
2024-01-09T08:13:24.386Z,-6.42
2024-01-09T08:14:24.447Z,-6.36
2024-01-09T08:15:24.355Z,-6.36
2024-01-09T08:16:24.390Z,-6.29
2024-01-09T08:17:24.378Z,-6.28
2024-01-09T08:18:24.494Z,-6.26
2024-01-09T08:19:24.384Z,-6.29
2024-01-09T08:20:24.348Z,-6.23
2024-01-09T08:21:24.336Z,-6.26
2024-01-09T08:22:24.284Z,-6.22
2024-01-09T08:23:24.310Z,-6.21
2024-01-09T08:24:24.279Z,-6.25
2024-01-09T08:25:24.262Z,-6.13
2024-01-09T08:26:24.255Z,-6.18
2024-01-09T08:27:24.275Z,-6.25
2024-01-09T08:28:24.266Z,-6.18
2024-01-09T08:29:24.259Z,-6.23
2024-01-09T08:30:24.276Z,-6.16
2024-01-09T08:31:24.200Z,-6.15
2024-01-09T08:32:24.427Z,-6.11
2024-01-09T08:33:26.725Z,-6.13
2024-01-09T08:34:24.280Z,-6.08
2024-01-09T08:35:24.236Z,-6.10
2024-01-09T08:36:24.154Z,-6.15
2024-01-09T08:37:24.137Z,-6.15
2024-01-09T08:38:24.145Z,-6.15
2024-01-09T08:39:24.136Z,-6.05
2024-01-09T08:40:24.107Z,-6.15
2024-01-09T08:41:24.128Z,-5.98
2024-01-09T08:42:24.071Z,-6.08
2024-01-09T08:43:25.083Z,-5.94
2024-01-09T08:44:24.101Z,-5.98
2024-01-09T08:45:24.056Z,-5.94
2024-01-09T08:46:24.028Z,-5.93
2024-01-09T08:47:24.070Z,-5.94
2024-01-09T08:48:24.394Z,-5.98
2024-01-09T08:49:24.104Z,-5.97
2024-01-09T08:50:24.041Z,-5.87
2024-01-09T08:51:24.983Z,-5.84
2024-01-09T08:52:23.984Z,-5.98
2024-01-09T08:53:24.006Z,-5.92
2024-01-09T08:54:23.975Z,-5.84
2024-01-09T08:55:23.942Z,-5.89
2024-01-09T08:56:24.007Z,-5.83
2024-01-09T08:57:23.938Z,-5.90
2024-01-09T08:58:23.930Z,-5.75
2024-01-09T08:59:23.932Z,-5.75
2024-01-09T09:00:23.884Z,-5.72
2024-01-09T09:01:24.029Z,-5.74
2024-01-09T09:02:23.954Z,-5.76
2024-01-09T09:03:23.909Z,-5.76
2024-01-09T09:04:23.861Z,-5.75
2024-01-09T09:05:24.023Z,-5.74
2024-01-09T09:06:23.908Z,-5.65
2024-01-09T09:07:23.821Z,-5.66
2024-01-09T09:08:23.875Z,-5.66
2024-01-09T09:09:23.780Z,-5.59
2024-01-09T09:10:23.775Z,-5.59
2024-01-09T09:11:23.844Z,-5.54
2024-01-09T09:12:23.768Z,-5.57
2024-01-09T09:13:23.770Z,-5.57
2024-01-09T09:14:23.779Z,-5.62
2024-01-09T09:15:23.779Z,-5.59
2024-01-09T09:16:23.718Z,-5.57
2024-01-09T09:17:23.782Z,-5.55
2024-01-09T09:18:23.871Z,-5.55
2024-01-09T09:19:23.792Z,-5.50
2024-01-09T09:20:23.704Z,-5.47
2024-01-09T09:21:23.678Z,-5.50
2024-01-09T09:22:23.673Z,-5.47
2024-01-09T09:23:23.671Z,-5.50
2024-01-09T09:24:23.647Z,-5.41
2024-01-09T09:25:23.652Z,-5.50
2024-01-09T09:26:23.738Z,-5.41
2024-01-09T09:27:23.593Z,-5.33
2024-01-09T09:28:23.638Z,-5.37
2024-01-09T09:29:32.299Z,-5.37
2024-01-09T09:30:24.669Z,-5.37
2024-01-09T09:31:23.573Z,-5.23
2024-01-09T09:32:23.566Z,-5.23
2024-01-09T09:33:23.736Z,-5.33
2024-01-09T09:34:23.545Z,-5.17
2024-01-09T09:35:23.571Z,-5.10
2024-01-09T09:36:23.540Z,-5.11
2024-01-09T09:37:23.501Z,-5.00
2024-01-09T09:38:23.514Z,-5.13
2024-01-09T09:39:23.539Z,-5.00
2024-01-09T09:40:23.472Z,-5.17
2024-01-09T09:41:23.535Z,-5.04
2024-01-09T09:42:23.448Z,-5.14
2024-01-09T09:43:23.431Z,-5.17
2024-01-09T09:44:23.491Z,-5.13
2024-01-09T09:45:23.412Z,-5.17
2024-01-09T09:46:23.421Z,-5.17
2024-01-09T09:47:23.641Z,-5.14
2024-01-09T09:48:23.525Z,-5.06
2024-01-09T09:49:23.408Z,-5.04
2024-01-09T09:50:23.364Z,-5.03
2024-01-09T09:51:25.637Z,-4.95
2024-01-09T09:52:23.343Z,-5.07
2024-01-09T09:53:23.416Z,-4.97
2024-01-09T09:54:23.374Z,-4.90
2024-01-09T09:55:23.353Z,-4.90
2024-01-09T09:56:23.546Z,-4.85
2024-01-09T09:57:23.311Z,-4.86
2024-01-09T09:58:23.264Z,-4.83
2024-01-09T09:59:23.290Z,-4.83
2024-01-09T10:00:23.263Z,-4.75
2024-01-09T10:01:23.278Z,-4.81
2024-01-09T10:02:25.766Z,-4.74
2024-01-09T10:03:23.335Z,-4.74
2024-01-09T10:04:23.231Z,-4.74
2024-01-09T10:05:23.314Z,-4.78
2024-01-09T10:06:23.286Z,-4.72
2024-01-09T10:07:23.178Z,-4.79
2024-01-09T10:08:23.204Z,-4.67
2024-01-09T10:09:23.208Z,-4.71
2024-01-09T10:10:23.145Z,-4.69
2024-01-09T10:11:23.164Z,-4.67
2024-01-09T10:12:23.107Z,-4.75
2024-01-09T10:13:23.099Z,-4.58
2024-01-09T10:14:23.121Z,-4.67
2024-01-09T10:15:23.127Z,-4.60
2024-01-09T10:16:23.084Z,-4.63
2024-01-09T10:17:23.099Z,-4.67
2024-01-09T10:18:23.279Z,-4.58
2024-01-09T10:19:23.089Z,-4.57
2024-01-09T10:20:26.223Z,-4.57
2024-01-09T10:21:23.026Z,-4.58
2024-01-09T10:22:23.022Z,-4.58
2024-01-09T10:23:23.055Z,-4.60
2024-01-09T10:24:23.006Z,-4.46
2024-01-09T10:25:22.987Z,-4.43
2024-01-09T10:26:23.105Z,-4.58
2024-01-09T10:27:22.958Z,-4.51
2024-01-09T10:28:22.972Z,-4.61
2024-01-09T10:29:23.027Z,-4.63
2024-01-09T10:30:23.055Z,-4.63
2024-01-09T10:31:22.910Z,-4.54
2024-01-09T10:32:22.994Z,-4.50
2024-01-09T10:33:23.086Z,-4.46
2024-01-09T10:34:22.966Z,-4.50
2024-01-09T10:35:22.904Z,-4.40
2024-01-09T10:36:22.863Z,-4.46
2024-01-09T10:37:22.849Z,-4.40
2024-01-09T10:38:22.908Z,-4.46
2024-01-09T10:39:23.158Z,-4.36
2024-01-09T10:40:22.847Z,-4.36
2024-01-09T10:41:22.858Z,-4.30
2024-01-09T10:42:22.781Z,-4.40
2024-01-09T10:43:22.775Z,-4.32
2024-01-09T10:44:22.832Z,-4.28
2024-01-09T10:45:22.795Z,-4.28
2024-01-09T10:46:22.776Z,-4.35
2024-01-09T10:47:22.856Z,-4.25
2024-01-09T10:48:22.878Z,-4.22
2024-01-09T10:49:23.703Z,-4.29
2024-01-09T10:50:22.901Z,-4.25
2024-01-09T10:51:22.703Z,-4.25
2024-01-09T10:52:22.709Z,-4.17
2024-01-09T10:53:22.694Z,-4.20
2024-01-09T10:54:22.667Z,-4.25
2024-01-09T10:55:22.652Z,-4.24
2024-01-09T10:56:22.701Z,-4.21
2024-01-09T10:57:22.640Z,-4.14
2024-01-09T10:58:22.648Z,-4.15
2024-01-09T10:59:22.620Z,-4.03
2024-01-09T11:00:22.602Z,-3.97
2024-01-09T11:01:22.708Z,-3.96
2024-01-09T11:02:22.670Z,-3.99
2024-01-09T11:03:22.648Z,-3.93
2024-01-09T11:04:22.552Z,-3.81
2024-01-09T11:05:22.609Z,-3.97
2024-01-09T11:06:22.592Z,-3.86
2024-01-09T11:07:22.526Z,-3.85
2024-01-09T11:08:22.546Z,-3.86
2024-01-09T11:09:22.537Z,-3.88
2024-01-09T11:10:22.485Z,-3.90
2024-01-09T11:11:22.525Z,-3.93
2024-01-09T11:12:22.475Z,-3.99
2024-01-09T11:13:22.672Z,-4.01
2024-01-09T11:14:22.494Z,-4.04
2024-01-09T11:15:22.484Z,-3.99
2024-01-09T11:16:22.415Z,-3.96
2024-01-09T11:17:22.615Z,-3.99
2024-01-09T11:18:22.515Z,-3.93
2024-01-09T11:19:22.428Z,-3.93
2024-01-09T11:20:22.468Z,-3.82
2024-01-09T11:21:22.398Z,-3.82
2024-01-09T11:22:22.356Z,-3.79
2024-01-09T11:23:22.408Z,-3.79
2024-01-09T11:24:22.364Z,-3.71
2024-01-09T11:25:22.345Z,-3.66
2024-01-09T11:26:22.335Z,-3.63
2024-01-09T11:27:22.328Z,-3.78
2024-01-09T11:28:22.348Z,-3.76
2024-01-09T11:29:22.328Z,-3.66
2024-01-09T11:30:22.384Z,-3.82
2024-01-09T11:31:22.645Z,-3.60
2024-01-09T11:32:22.335Z,-3.66
2024-01-09T11:33:22.449Z,-3.66
2024-01-09T11:34:22.319Z,-3.57
2024-01-09T11:35:22.278Z,-3.56
2024-01-09T11:36:22.256Z,-3.49
2024-01-09T11:37:22.213Z,-3.60
2024-01-09T11:38:22.303Z,-3.53
2024-01-09T11:39:22.168Z,-3.62
2024-01-09T11:40:22.157Z,-3.67
2024-01-09T11:41:22.262Z,-3.62
2024-01-09T11:42:22.149Z,-3.52
2024-01-09T11:43:22.142Z,-3.62
2024-01-09T11:44:22.227Z,-3.52
2024-01-09T11:45:22.106Z,-3.52
2024-01-09T11:46:22.107Z,-3.53
2024-01-09T11:47:22.175Z,-3.48
2024-01-09T11:48:22.286Z,-3.46
2024-01-09T11:49:22.239Z,-3.49
2024-01-09T11:50:22.176Z,-3.45
2024-01-09T11:51:22.074Z,-3.52
2024-01-09T11:52:22.031Z,-3.52
2024-01-09T11:53:22.058Z,-3.52
2024-01-09T11:54:22.021Z,-3.52
2024-01-09T11:55:22.011Z,-3.49
2024-01-09T11:56:22.042Z,-3.52
2024-01-09T11:57:30.676Z,-3.46
2024-01-09T11:58:21.956Z,-3.41
2024-01-09T11:59:22.031Z,-3.42
2024-01-09T12:00:22.026Z,-3.46
2024-01-09T12:01:22.052Z,-3.52
2024-01-09T12:02:21.990Z,-3.48
2024-01-09T12:03:21.928Z,-3.35
2024-01-09T12:04:21.940Z,-3.39
2024-01-09T12:05:21.931Z,-3.41
2024-01-09T12:06:21.939Z,-3.27
2024-01-09T12:07:21.956Z,-3.33
2024-01-09T12:08:21.930Z,-3.36
2024-01-09T12:09:21.855Z,-3.28
2024-01-09T12:10:30.527Z,-3.27
2024-01-09T12:11:22.948Z,-3.28
2024-01-09T12:12:21.835Z,-3.27
2024-01-09T12:13:21.830Z,-3.10
2024-01-09T12:14:21.827Z,-3.17
2024-01-09T12:15:21.803Z,-3.20
2024-01-09T12:16:21.810Z,-3.15
2024-01-09T12:17:21.851Z,-3.14
2024-01-09T12:18:21.799Z,-3.06
2024-01-09T12:19:21.874Z,-3.06
2024-01-09T12:20:21.755Z,-3.07
2024-01-09T12:21:21.710Z,-2.97
2024-01-09T12:22:21.733Z,-2.97
2024-01-09T12:23:21.713Z,-2.89
2024-01-09T12:24:24.397Z,-2.91
2024-01-09T12:25:21.674Z,-2.92
2024-01-09T12:26:21.715Z,-2.84
2024-01-09T12:27:21.652Z,-2.84
2024-01-09T12:28:21.650Z,-2.85
2024-01-09T12:29:21.666Z,-2.86
2024-01-09T12:30:21.780Z,-2.82
2024-01-09T12:31:21.694Z,-2.86
2024-01-09T12:32:21.630Z,-2.79
2024-01-09T12:33:21.834Z,-2.85
2024-01-09T12:34:21.798Z,-2.82
2024-01-09T12:35:21.611Z,-2.92
2024-01-09T12:36:21.549Z,-2.89
2024-01-09T12:37:21.559Z,-2.88
2024-01-09T12:38:21.554Z,-2.85
2024-01-09T12:39:21.614Z,-2.77
2024-01-09T12:40:21.512Z,-2.70
2024-01-09T12:41:21.608Z,-2.73
2024-01-09T12:42:21.512Z,-2.67
2024-01-09T12:43:21.469Z,-2.71
2024-01-09T12:44:21.560Z,-2.66
2024-01-09T12:45:21.453Z,-2.67
2024-01-09T12:46:21.483Z,-2.71
2024-01-09T12:47:21.471Z,-2.67
2024-01-09T12:48:21.544Z,-2.73
2024-01-09T12:49:21.517Z,-2.71
2024-01-09T12:50:21.474Z,-2.73
2024-01-09T12:51:21.463Z,-2.86
2024-01-09T12:52:21.395Z,-2.78
2024-01-09T12:53:21.456Z,-2.77